Time;durP1;ratioP1;P1;durP2;ratioP2;P2;SDS_P1;SDS_P2;PMS_P1;PMS_P2;Temp;Humidity;BMP_temperature;BMP_pressure;BME280_temperature;BME280_humidity;BME280_pressure;Samples;Min_cycle;Max_cycle;Signal;HPM_P1;HPM_P2
2022/07/22 00:01:40;;;;;;;26.50;10.95;;;;;;;;;;4381293;32;20561;-65
2022/07/22 00:04:07;;;;;;;20.70;10.20;;;;;;;;;;4406766;32;20184;-64
2022/07/22 00:06:33;;;;;;;20.33;10.63;;;;;;;;;;4407967;32;20157;-63
2022/07/22 00:09:01;;;;;;;27.42;12.25;;;;;;;;;;4394493;32;20143;-64
2022/07/22 00:11:27;;;;;;;24.17;11.55;;;;;;;;;;4393787;32;20080;-64
2022/07/22 00:13:54;;;;;;;27.30;11.48;;;;;;;;;;4407806;32;20467;-64
2022/07/22 00:16:21;;;;;;;27.05;12.20;;;;;;;;;;4406777;32;20095;-64
2022/07/22 00:18:47;;;;;;;23.75;10.75;;;;;;;;;;4393856;32;20138;-64
2022/07/22 00:21:14;;;;;;;18.92;9.10;;;;;;;;;;4393792;32;20090;-64
2022/07/22 00:23:41;;;;;;;26.20;10.75;;;;;;;;;;4406425;32;20149;-65
2022/07/22 00:26:07;;;;;;;24.23;9.70;;;;;;;;;;4408220;32;20068;-64
2022/07/22 00:28:34;;;;;;;21.92;8.95;;;;;;;;;;4406500;32;20526;-64
2022/07/22 00:31:01;;;;;;;15.75;6.85;;;;;;;;;;4393541;32;20089;-64
2022/07/22 00:33:27;;;;;;;17.00;7.80;;;;;;;;;;4407645;32;20530;-64
2022/07/22 00:35:54;;;;;;;13.95;6.07;;;;;;;;;;4407020;32;20514;-64
2022/07/22 00:38:21;;;;;;;23.67;6.28;;;;;;;;;;4406460;32;20515;-65
2022/07/22 00:40:47;;;;;;;15.13;6.37;;;;;;;;;;4406168;32;20084;-64
2022/07/22 00:43:14;;;;;;;16.75;6.93;;;;;;;;;;4406302;32;20085;-65
2022/07/22 00:45:41;;;;;;;16.62;6.03;;;;;;;;;;4406611;32;20091;-64
2022/07/22 00:48:07;;;;;;;16.70;7.68;;;;;;;;;;4393768;32;20089;-64
2022/07/22 00:50:34;;;;;;;20.27;8.07;;;;;;;;;;4406543;32;20096;-64
2022/07/22 00:53:01;;;;;;;17.40;7.05;;;;;;;;;;4406717;32;20080;-64
2022/07/22 00:55:28;;;;;;;22.52;8.07;;;;;;;;;;4407211;32;20073;-64
2022/07/22 00:57:55;;;;;;;26.98;9.10;;;;;;;;;;4407394;32;20081;-64
2022/07/22 01:00:23;;;;;;;25.40;10.00;;;;;;;;;;4407283;32;20177;-64
2022/07/22 01:02:50;;;;;;;19.48;7.10;;;;;;;;;;4393387;32;20078;-64
2022/07/22 01:05:17;;;;;;;18.52;7.90;;;;;;;;;;4393023;32;20524;-64
2022/07/22 01:07:44;;;;;;;13.65;6.70;;;;;;;;;;4405799;32;20529;-64
2022/07/22 01:10:11;;;;;;;13.10;6.28;;;;;;;;;;4380555;32;20130;-64
2022/07/22 01:12:38;;;;;;;15.45;5.35;;;;;;;;;;4405573;32;20165;-64
2022/07/22 01:15:05;;;;;;;8.40;4.12;;;;;;;;;;4407575;32;20157;-64
2022/07/22 01:17:32;;;;;;;8.65;5.00;;;;;;;;;;4407601;32;20085;-64
2022/07/22 01:20:03;;;;;;;9.52;4.75;;;;;;;;;;4405550;32;20162;-64
2022/07/22 01:22:30;;;;;;;12.25;5.40;;;;;;;;;;4407376;32;20552;-64
2022/07/22 01:24:57;;;;;;;10.95;4.78;;;;;;;;;;4405572;32;20140;-64
2022/07/22 01:27:23;;;;;;;9.00;4.40;;;;;;;;;;4406966;32;20148;-64
2022/07/22 01:29:50;;;;;;;7.45;4.18;;;;;;;;;;4407058;32;20091;-64
2022/07/22 01:32:17;;;;;;;8.13;4.22;;;;;;;;;;4406536;32;20073;-64
2022/07/22 01:34:43;;;;;;;5.18;3.45;;;;;;;;;;4405784;32;20152;-64
2022/07/22 01:37:11;;;;;;;10.20;4.40;;;;;;;;;;4393102;32;20128;-64
2022/07/22 01:39:38;;;;;;;7.53;4.25;;;;;;;;;;4406612;32;20527;-64
2022/07/22 01:42:05;;;;;;;7.28;3.87;;;;;;;;;;4392754;32;20070;-64
2022/07/22 01:44:32;;;;;;;8.27;4.00;;;;;;;;;;4392412;32;20575;-63
2022/07/22 01:46:59;;;;;;;9.52;3.67;;;;;;;;;;4406503;32;20080;-64
2022/07/22 01:49:26;;;;;;;6.37;3.62;;;;;;;;;;4380371;32;20092;-64
2022/07/22 01:51:53;;;;;;;8.05;3.75;;;;;;;;;;4405023;32;20088;-65
2022/07/22 01:54:20;;;;;;;3.30;2.60;;;;;;;;;;4392541;32;20073;-64
2022/07/22 01:56:46;;;;;;;5.30;2.72;;;;;;;;;;4392542;32;20165;-64
2022/07/22 01:59:13;;;;;;;4.78;3.15;;;;;;;;;;4406551;32;20157;-63
2022/07/22 02:01:40;;;;;;;5.37;2.97;;;;;;;;;;4405684;32;20184;-64
2022/07/22 02:04:06;;;;;;;5.35;3.25;;;;;;;;;;4379715;32;20539;-64
2022/07/22 02:06:33;;;;;;;4.87;3.03;;;;;;;;;;4392467;32;20078;-63
2022/07/22 02:09:00;;;;;;;4.30;3.25;;;;;;;;;;4405318;32;20503;-64
2022/07/22 02:11:26;;;;;;;5.30;3.12;;;;;;;;;;4406388;32;20100;-63
2022/07/22 02:13:53;;;;;;;6.75;2.72;;;;;;;;;;4405487;32;20073;-64
2022/07/22 02:16:20;;;;;;;5.82;2.83;;;;;;;;;;4405440;32;20443;-64
2022/07/22 02:18:47;;;;;;;5.22;2.70;;;;;;;;;;4405245;32;20085;-64
2022/07/22 02:21:13;;;;;;;4.12;3.00;;;;;;;;;;4406309;32;20148;-64
2022/07/22 02:23:40;;;;;;;3.72;2.55;;;;;;;;;;4405410;32;20072;-63
2022/07/22 02:26:07;;;;;;;4.00;2.70;;;;;;;;;;4405187;32;20085;-65
2022/07/22 02:28:35;;;;;;;2.92;2.55;;;;;;;;;;4405341;32;20073;-64
2022/07/22 02:33:41;;;;;;;7.30;2.65;;;;;;;;;;3836655;37;20058;-64
2022/07/22 02:36:09;;;;;;;5.85;2.85;;;;;;;;;;4378695;32;20077;-63
2022/07/22 02:38:36;;;;;;;6.10;2.65;;;;;;;;;;4403109;32;20084;-64
2022/07/22 02:41:02;;;;;;;4.82;2.70;;;;;;;;;;4404610;32;20094;-64
2022/07/22 02:43:29;;;;;;;4.25;2.53;;;;;;;;;;4403019;32;20089;-65
2022/07/22 02:45:56;;;;;;;4.50;2.78;;;;;;;;;;4377790;32;20096;-62
2022/07/22 02:48:22;;;;;;;4.22;2.72;;;;;;;;;;4402806;32;20146;-64
2022/07/22 02:50:49;;;;;;;4.78;2.75;;;;;;;;;;4403179;32;20145;-62
2022/07/22 02:53:16;;;;;;;2.95;2.42;;;;;;;;;;4402905;32;20098;-62
2022/07/22 02:55:42;;;;;;;3.78;2.45;;;;;;;;;;4404520;32;20579;-64
2022/07/22 02:58:09;;;;;;;6.03;2.60;;;;;;;;;;4403015;32;20488;-64
2022/07/22 03:00:40;;;;;;;4.25;2.50;;;;;;;;;;4404114;32;20078;-64
2022/07/22 03:03:06;;;;;;;3.85;2.53;;;;;;;;;;4390118;32;20077;-64
2022/07/22 03:05:33;;;;;;;3.87;2.83;;;;;;;;;;4404630;32;20447;-63
2022/07/22 03:08:00;;;;;;;5.50;2.50;;;;;;;;;;4402872;32;20522;-64
2022/07/22 03:10:27;;;;;;;3.47;2.55;;;;;;;;;;4402518;32;20100;-64
2022/07/22 03:12:53;;;;;;;5.03;2.90;;;;;;;;;;4404174;32;20088;-64
2022/07/22 03:15:20;;;;;;;3.50;2.67;;;;;;;;;;4402552;32;20093;-64
2022/07/22 03:17:47;;;;;;;3.58;2.50;;;;;;;;;;4403971;32;20080;-63
2022/07/22 03:20:14;;;;;;;4.78;2.53;;;;;;;;;;4403855;32;20070;-64
2022/07/22 03:22:40;;;;;;;3.87;2.60;;;;;;;;;;4402403;32;20085;-64
2022/07/22 03:25:07;;;;;;;4.87;2.47;;;;;;;;;;4389767;32;20065;-62
2022/07/22 03:27:34;;;;;;;4.07;2.50;;;;;;;;;;4404087;32;20082;-64
2022/07/22 03:30:01;;;;;;;3.12;2.60;;;;;;;;;;4403110;32;20444;-63
2022/07/22 03:32:27;;;;;;;6.00;2.83;;;;;;;;;;4390435;32;20511;-64
2022/07/22 03:34:54;;;;;;;3.33;2.72;;;;;;;;;;4389913;32;20544;-64
2022/07/22 03:37:21;;;;;;;6.07;2.67;;;;;;;;;;4402146;32;20062;-64
2022/07/22 03:39:47;;;;;;;3.92;2.37;;;;;;;;;;4402237;32;20499;-64
2022/07/22 03:42:14;;;;;;;7.12;2.87;;;;;;;;;;4401962;32;20093;-64
2022/07/22 03:44:41;;;;;;;4.45;2.55;;;;;;;;;;4395380;32;20145;-64
2022/07/22 03:47:08;;;;;;;4.12;2.50;;;;;;;;;;4379547;32;20078;-64
2022/07/22 03:49:35;;;;;;;3.08;2.78;;;;;;;;;;4379604;32;20093;-64
2022/07/22 03:52:01;;;;;;;5.28;2.70;;;;;;;;;;4393388;32;20576;-64
2022/07/22 03:54:28;;;;;;;8.52;3.05;;;;;;;;;;4392209;32;20062;-64
2022/07/22 03:56:55;;;;;;;7.55;2.92;;;;;;;;;;4393599;32;20086;-62
2022/07/22 03:59:21;;;;;;;6.85;3.08;;;;;;;;;;4391687;32;20093;-64
2022/07/22 04:01:48;;;;;;;7.68;3.00;;;;;;;;;;4379581;32;20059;-64
2022/07/22 04:04:15;;;;;;;7.10;2.72;;;;;;;;;;4379165;32;20089;-64
2022/07/22 04:06:41;;;;;;;7.50;3.00;;;;;;;;;;4393304;32;20073;-63
2022/07/22 04:09:08;;;;;;;6.95;3.00;;;;;;;;;;4391635;32;20070;-64
2022/07/22 04:11:35;;;;;;;6.22;2.80;;;;;;;;;;4391461;32;20162;-64
2022/07/22 04:14:01;;;;;;;5.97;3.12;;;;;;;;;;4391585;32;20089;-64
2022/07/22 04:16:28;;;;;;;4.32;2.42;;;;;;;;;;4391895;32;20069;-64
2022/07/22 04:18:55;;;;;;;7.45;2.83;;;;;;;;;;4391729;32;20505;-65
2022/07/22 04:21:22;;;;;;;6.25;2.53;;;;;;;;;;4391692;32;20074;-64
2022/07/22 04:23:48;;;;;;;6.50;3.00;;;;;;;;;;4391546;32;20082;-64
2022/07/22 04:26:15;;;;;;;4.12;2.62;;;;;;;;;;4378711;32;20181;-64
2022/07/22 04:28:42;;;;;;;4.85;2.60;;;;;;;;;;4391930;32;20094;-62
2022/07/22 04:31:08;;;;;;;4.65;2.40;;;;;;;;;;4366550;32;20081;-64
2022/07/22 04:33:35;;;;;;;4.97;2.40;;;;;;;;;;4391533;32;20097;-63
2022/07/22 04:36:02;;;;;;;5.50;2.78;;;;;;;;;;4391281;32;20162;-64
2022/07/22 04:38:28;;;;;;;8.73;2.90;;;;;;;;;;4378687;32;20080;-64
2022/07/22 04:40:55;;;;;;;7.18;2.83;;;;;;;;;;4379041;32;20154;-63
2022/07/22 04:43:22;;;;;;;7.78;2.97;;;;;;;;;;4392175;32;20085;-64
2022/07/22 04:45:49;;;;;;;5.90;2.78;;;;;;;;;;4390915;32;20622;-64
2022/07/22 04:48:16;;;;;;;6.30;2.97;;;;;;;;;;4391194;32;20089;-63
2022/07/22 04:50:42;;;;;;;6.75;2.85;;;;;;;;;;4378867;32;20073;-63
2022/07/22 04:53:09;;;;;;;7.25;3.35;;;;;;;;;;4378492;32;20456;-63
2022/07/22 04:55:36;;;;;;;7.22;3.05;;;;;;;;;;4391434;32;20062;-64
2022/07/22 04:58:02;;;;;;;5.47;2.90;;;;;;;;;;4390990;32;20085;-64
2022/07/22 05:00:29;;;;;;;8.20;2.87;;;;;;;;;;4378320;32;20070;-64
2022/07/22 05:02:56;;;;;;;5.12;2.70;;;;;;;;;;4392272;32;20516;-63
2022/07/22 05:05:23;;;;;;;4.45;2.60;;;;;;;;;;4391129;32;20104;-63
2022/07/22 05:07:50;;;;;;;4.72;3.05;;;;;;;;;;4390829;32;20516;-64
2022/07/22 05:10:17;;;;;;;3.58;2.85;;;;;;;;;;4378043;32;20504;-64
2022/07/22 05:12:43;;;;;;;4.35;2.78;;;;;;;;;;4392382;32;20496;-63
2022/07/22 05:15:10;;;;;;;3.72;2.50;;;;;;;;;;4390732;32;20077;-63
2022/07/22 05:17:37;;;;;;;6.45;3.08;;;;;;;;;;4390661;32;20456;-63
2022/07/22 05:20:04;;;;;;;5.35;2.90;;;;;;;;;;4378328;32;20089;-64
2022/07/22 05:22:31;;;;;;;6.25;3.17;;;;;;;;;;4390693;32;20081;-64
2022/07/22 05:24:58;;;;;;;12.27;3.92;;;;;;;;;;4391987;32;20125;-64
2022/07/22 05:27:25;;;;;;;5.97;3.30;;;;;;;;;;4392239;32;20089;-64
2022/07/22 05:29:51;;;;;;;7.53;3.25;;;;;;;;;;4392528;32;20065;-63
2022/07/22 05:32:18;;;;;;;4.68;2.90;;;;;;;;;;4377851;32;20138;-64
2022/07/22 05:34:45;;;;;;;4.75;2.95;;;;;;;;;;4392390;32;20138;-64
2022/07/22 05:37:11;;;;;;;8.40;3.42;;;;;;;;;;4391661;32;20158;-64
2022/07/22 05:39:38;;;;;;;5.22;2.90;;;;;;;;;;4391160;32;20074;-64
2022/07/22 05:42:05;;;;;;;7.70;3.40;;;;;;;;;;4391131;32;20070;-64
2022/07/22 05:44:31;;;;;;;5.95;3.60;;;;;;;;;;4390387;32;20538;-64
2022/07/22 05:46:58;;;;;;;14.35;3.37;;;;;;;;;;4390411;32;20086;-64
2022/07/22 05:49:26;;;;;;;6.80;2.90;;;;;;;;;;4390510;32;20113;-64
2022/07/22 05:51:53;;;;;;;5.35;3.45;;;;;;;;;;4377907;32;20511;-64
2022/07/22 05:54:20;;;;;;;4.32;2.95;;;;;;;;;;4379493;32;20081;-64
2022/07/22 05:56:47;;;;;;;6.72;3.75;;;;;;;;;;4378789;32;20595;-65
2022/07/22 05:59:16;;;;;;;7.28;3.17;;;;;;;;;;4378313;32;20144;-64
2022/07/22 06:01:42;;;;;;;5.37;3.03;;;;;;;;;;4377565;32;20082;-64
2022/07/22 06:04:09;;;;;;;5.05;3.35;;;;;;;;;;4390132;32;20187;-63
2022/07/22 06:06:36;;;;;;;4.55;3.42;;;;;;;;;;4377174;32;20475;-63
2022/07/22 06:09:02;;;;;;;11.70;3.67;;;;;;;;;;4377722;32;20167;-63
2022/07/22 06:11:29;;;;;;;9.30;4.00;;;;;;;;;;4377613;32;20101;-64
2022/07/22 06:13:55;;;;;;;6.40;4.12;;;;;;;;;;4391364;32;20096;-64
2022/07/22 06:16:22;;;;;;;12.40;6.28;;;;;;;;;;4377492;32;20516;-64
2022/07/22 06:18:49;;;;;;;13.25;6.43;;;;;;;;;;4391440;32;20170;-64
2022/07/22 06:21:16;;;;;;;11.68;6.12;;;;;;;;;;4390196;32;20082;-64
2022/07/22 06:23:42;;;;;;;17.67;6.60;;;;;;;;;;4389954;32;20089;-63
2022/07/22 06:26:09;;;;;;;9.63;5.82;;;;;;;;;;4390071;32;20066;-64
2022/07/22 06:28:36;;;;;;;11.10;5.55;;;;;;;;;;4390093;32;20109;-64
2022/07/22 06:31:02;;;;;;;8.93;3.67;;;;;;;;;;4390050;32;20164;-64
2022/07/22 06:33:33;;;;;;;9.82;3.72;;;;;;;;;;4376737;32;20172;-64
2022/07/22 06:36:00;;;;;;;5.65;3.50;;;;;;;;;;4390768;32;20069;-64
2022/07/22 06:38:27;;;;;;;5.97;3.05;;;;;;;;;;4389708;32;20070;-63
2022/07/22 06:40:53;;;;;;;7.80;3.17;;;;;;;;;;4389711;32;20597;-64
2022/07/22 06:43:20;;;;;;;7.15;4.15;;;;;;;;;;4389773;32;20070;-64
2022/07/22 06:45:47;;;;;;;8.63;5.50;;;;;;;;;;4391079;32;20496;-64
2022/07/22 06:48:14;;;;;;;9.50;5.68;;;;;;;;;;4389498;32;20092;-64
2022/07/22 06:50:40;;;;;;;11.07;6.47;;;;;;;;;;4389873;32;20069;-64
2022/07/22 06:53:07;;;;;;;15.23;7.78;;;;;;;;;;4389745;32;20158;-65
2022/07/22 06:55:34;;;;;;;12.23;7.25;;;;;;;;;;4389303;32;20617;-63
2022/07/22 06:58:38;;;;;;;10.60;4.82;;;;;;;;;;4391096;32;20089;-64
2022/07/22 07:01:04;;;;;;;7.95;4.85;;;;;;;;;;4391173;32;20084;-64
2022/07/22 07:03:31;;;;;;;12.50;5.43;;;;;;;;;;4389673;32;20088;-64
2022/07/22 07:05:58;;;;;;;11.52;7.05;;;;;;;;;;4389505;32;20541;-64
2022/07/22 07:08:24;;;;;;;14.52;8.60;;;;;;;;;;4389728;32;20170;-63
2022/07/22 07:10:51;;;;;;;13.65;8.45;;;;;;;;;;4389990;32;20165;-64
2022/07/22 07:13:18;;;;;;;15.27;7.87;;;;;;;;;;4390938;32;20509;-64
2022/07/22 07:15:44;;;;;;;16.23;8.50;;;;;;;;;;4389696;32;20077;-64
2022/07/22 07:18:11;;;;;;;20.05;10.38;;;;;;;;;;4389769;32;20182;-63
2022/07/22 07:20:38;;;;;;;17.70;9.75;;;;;;;;;;4393727;32;20081;-64
2022/07/22 07:23:05;;;;;;;17.73;9.95;;;;;;;;;;4379905;32;20077;-64
2022/07/22 07:25:32;;;;;;;13.57;8.57;;;;;;;;;;4392375;32;20151;-64
2022/07/22 07:27:58;;;;;;;15.40;7.62;;;;;;;;;;4393755;32;20503;-64
2022/07/22 07:30:25;;;;;;;11.35;5.22;;;;;;;;;;4392793;32;20172;-63
2022/07/22 07:32:52;;;;;;;9.65;5.22;;;;;;;;;;4379293;32;20086;-64
2022/07/22 07:35:18;;;;;;;8.63;4.53;;;;;;;;;;4392780;32;20152;-64
2022/07/22 07:37:45;;;;;;;5.50;3.58;;;;;;;;;;4392161;32;20174;-64
2022/07/22 07:40:12;;;;;;;6.70;3.03;;;;;;;;;;4392224;32;20500;-65
2022/07/22 07:42:39;;;;;;;6.90;3.10;;;;;;;;;;4392514;32;20150;-64
2022/07/22 07:45:06;;;;;;;5.68;3.20;;;;;;;;;;4367131;32;20499;-64
2022/07/22 07:47:33;;;;;;;5.37;3.05;;;;;;;;;;4379481;32;20076;-64
2022/07/22 07:50:02;;;;;;;4.65;2.67;;;;;;;;;;4379926;32;20078;-64
2022/07/22 07:52:28;;;;;;;3.80;2.80;;;;;;;;;;4380041;32;20100;-65
2022/07/22 07:54:55;;;;;;;6.07;2.72;;;;;;;;;;4391836;32;20102;-64
2022/07/22 07:57:22;;;;;;;6.75;2.95;;;;;;;;;;4391508;32;20092;-64
2022/07/22 07:59:49;;;;;;;10.07;3.33;;;;;;;;;;4366846;32;20086;-64
2022/07/22 08:02:16;;;;;;;8.68;3.40;;;;;;;;;;4393155;32;20077;-64
2022/07/22 08:04:43;;;;;;;7.53;4.32;;;;;;;;;;4366783;32;20097;-64
2022/07/22 08:07:09;;;;;;;8.32;4.90;;;;;;;;;;4391393;32;20077;-64
2022/07/22 08:09:37;;;;;;;6.90;4.95;;;;;;;;;;4366752;32;20543;-64
2022/07/22 08:12:04;;;;;;;9.75;6.55;;;;;;;;;;4379573;32;20073;-64
2022/07/22 08:14:31;;;;;;;12.82;6.10;;;;;;;;;;4367132;32;20077;-64
2022/07/22 08:16:58;;;;;;;9.48;6.05;;;;;;;;;;4367423;32;20100;-64
2022/07/22 08:19:25;;;;;;;9.18;5.18;;;;;;;;;;4366927;32;20234;-64
2022/07/22 08:21:52;;;;;;;10.25;5.37;;;;;;;;;;4396048;32;20157;-64
2022/07/22 08:24:19;;;;;;;8.32;5.62;;;;;;;;;;4385621;32;20078;-64
2022/07/22 08:26:46;;;;;;;11.23;5.97;;;;;;;;;;4383369;32;20066;-62
2022/07/22 08:29:12;;;;;;;12.55;6.40;;;;;;;;;;4396432;32;20078;-63
2022/07/22 08:31:39;;;;;;;13.40;6.25;;;;;;;;;;4393521;32;20145;-63
2022/07/22 08:34:06;;;;;;;19.00;8.00;;;;;;;;;;4396171;32;20433;-63
2022/07/22 08:36:32;;;;;;;10.00;6.57;;;;;;;;;;4393362;32;20552;-64
2022/07/22 08:38:59;;;;;;;14.15;6.45;;;;;;;;;;4379915;32;20086;-63
2022/07/22 08:41:29;;;;;;;14.87;7.82;;;;;;;;;;4392072;32;20074;-64
2022/07/22 08:43:56;;;;;;;11.50;6.05;;;;;;;;;;4367421;32;20066;-64
2022/07/22 08:46:23;;;;;;;7.45;3.85;;;;;;;;;;4380708;32;20078;-64
2022/07/22 08:48:50;;;;;;;9.30;4.00;;;;;;;;;;4379873;32;20137;-64
2022/07/22 08:51:17;;;;;;;9.60;3.70;;;;;;;;;;4392711;32;20149;-65
2022/07/22 08:53:43;;;;;;;5.93;3.30;;;;;;;;;;4393161;32;20085;-64
2022/07/22 08:56:13;;;;;;;8.52;3.03;;;;;;;;;;4378662;32;20153;-64
2022/07/22 08:58:41;;;;;;;5.72;3.00;;;;;;;;;;4391328;32;20609;-64
2022/07/22 09:01:16;;;;;;;5.45;2.78;;;;;;;;;;4378445;32;20085;-64
2022/07/22 09:03:51;;;;;;;5.62;3.08;;;;;;;;;;4365878;32;20077;-64
2022/07/22 09:06:18;;;;;;;6.80;2.70;;;;;;;;;;4378493;32;20085;-63
2022/07/22 09:08:59;;;;;;;7.47;2.92;;;;;;;;;;4378246;32;20097;-64
2022/07/22 09:11:30;;;;;;;8.93;3.47;;;;;;;;;;4390465;32;20534;-64
2022/07/22 09:13:58;;;;;;;6.18;2.95;;;;;;;;;;4378307;32;20119;-64
2022/07/22 09:16:45;;;;;;;3.03;2.67;;;;;;;;;;4392469;32;20066;-64
2022/07/22 09:19:12;;;;;;;3.58;2.28;;;;;;;;;;4378412;32;20080;-64
2022/07/22 09:21:42;;;;;;;2.67;2.28;;;;;;;;;;4390388;32;20166;-64
2022/07/22 09:24:09;;;;;;;3.17;2.20;;;;;;;;;;4390280;32;20078;-64
2022/07/22 09:26:40;;;;;;;4.22;2.40;;;;;;;;;;4390656;32;20063;-64
2022/07/22 09:29:07;;;;;;;4.95;2.30;;;;;;;;;;4377824;32;20081;-64
2022/07/22 09:31:36;;;;;;;5.30;2.45;;;;;;;;;;4377582;32;20217;-64
2022/07/22 09:34:03;;;;;;;4.57;2.55;;;;;;;;;;4390767;32;20073;-64
2022/07/22 09:36:31;;;;;;;3.08;2.30;;;;;;;;;;4365635;32;20074;-63
2022/07/22 09:38:58;;;;;;;4.35;2.47;;;;;;;;;;4365002;32;20086;-63
2022/07/22 09:41:25;;;;;;;3.97;2.20;;;;;;;;;;4377135;32;20105;-63
2022/07/22 09:43:52;;;;;;;4.22;2.15;;;;;;;;;;4377759;32;20515;-64
2022/07/22 09:46:37;;;;;;;4.87;2.50;;;;;;;;;;4390427;32;20080;-63
2022/07/22 09:49:03;;;;;;;4.65;2.85;;;;;;;;;;4378013;32;20097;-64
2022/07/22 09:51:30;;;;;;;4.07;2.53;;;;;;;;;;4377964;32;20108;-63
2022/07/22 09:53:58;;;;;;;3.72;2.58;;;;;;;;;;4377861;32;20066;-64
2022/07/22 09:56:25;;;;;;;4.22;2.50;;;;;;;;;;4378388;32;20070;-63
2022/07/22 09:58:52;;;;;;;3.47;2.60;;;;;;;;;;4378022;32;20179;-63
2022/07/22 10:01:20;;;;;;;3.00;2.42;;;;;;;;;;4364823;32;20519;-64
2022/07/22 10:03:49;;;;;;;5.45;2.35;;;;;;;;;;4364880;32;20515;-64
2022/07/22 10:06:16;;;;;;;3.17;2.17;;;;;;;;;;4390401;32;20066;-64
2022/07/22 10:08:43;;;;;;;2.60;2.10;;;;;;;;;;4377701;32;20156;-64
2022/07/22 10:11:09;;;;;;;5.37;2.10;;;;;;;;;;4364905;32;20069;-62
2022/07/22 10:13:38;;;;;;;4.32;2.30;;;;;;;;;;4389807;32;20534;-64
2022/07/22 10:16:06;;;;;;;4.18;2.12;;;;;;;;;;4377133;32;20100;-64
2022/07/22 10:18:33;;;;;;;3.40;2.50;;;;;;;;;;4377157;32;20073;-64
2022/07/22 10:21:05;;;;;;;6.50;2.53;;;;;;;;;;4377245;32;20447;-64
2022/07/22 10:23:32;;;;;;;6.50;2.50;;;;;;;;;;4390066;32;20519;-64
2022/07/22 10:26:01;;;;;;;4.95;2.40;;;;;;;;;;4377975;32;20100;-64
2022/07/22 10:28:29;;;;;;;2.70;2.08;;;;;;;;;;4389890;32;20065;-64
2022/07/22 10:31:28;;;;;;;6.57;2.30;;;;;;;;;;4377555;32;20507;-64
2022/07/22 10:33:56;;;;;;;3.45;2.12;;;;;;;;;;4345001;32;20082;-64
2022/07/22 10:36:37;;;;;;;3.03;2.28;;;;;;;;;;4377486;32;20079;-64
2022/07/22 10:39:07;;;;;;;5.90;2.40;;;;;;;;;;4377432;32;20613;-63
2022/07/22 10:41:39;;;;;;;4.57;2.45;;;;;;;;;;4377387;32;20153;-64
2022/07/22 10:44:06;;;;;;;2.17;1.98;;;;;;;;;;4377690;32;20171;-63
2022/07/22 10:46:53;;;;;;;5.18;2.58;;;;;;;;;;4377386;32;20062;-64
2022/07/22 10:49:22;;;;;;;4.43;2.33;;;;;;;;;;4377084;32;20451;-64
2022/07/22 10:52:07;;;;;;;7.00;2.55;;;;;;;;;;4389433;32;20065;-64
2022/07/22 10:54:53;;;;;;;3.25;2.10;;;;;;;;;;4391194;32;20089;-64
2022/07/22 10:57:32;;;;;;;3.35;2.22;;;;;;;;;;4380146;32;20519;-64
2022/07/22 10:59:59;;;;;;;2.75;2.35;;;;;;;;;;4367382;32;20527;-64
2022/07/22 11:02:27;;;;;;;5.82;2.50;;;;;;;;;;4394412;32;20171;-64
2022/07/22 11:04:54;;;;;;;4.18;2.45;;;;;;;;;;4367651;32;20147;-64
2022/07/22 11:07:21;;;;;;;7.30;2.28;;;;;;;;;;4367428;32;20066;-64
2022/07/22 11:09:48;;;;;;;5.05;2.70;;;;;;;;;;4380014;32;20444;-64
2022/07/22 11:12:15;;;;;;;4.97;2.53;;;;;;;;;;4392397;32;20231;-64
2022/07/22 11:14:42;;;;;;;3.37;2.60;;;;;;;;;;4367284;32;20088;-65
2022/07/22 11:17:10;;;;;;;5.45;2.45;;;;;;;;;;4392389;32;20157;-64
2022/07/22 11:19:38;;;;;;;3.95;2.85;;;;;;;;;;4379985;32;20078;-64
2022/07/22 11:22:13;;;;;;;6.78;3.08;;;;;;;;;;4392997;32;20437;-64
2022/07/22 11:24:41;;;;;;;6.00;2.67;;;;;;;;;;4393296;32;20074;-64
2022/07/22 11:27:15;;;;;;;4.97;2.30;;;;;;;;;;4367222;32;20082;-65
2022/07/22 11:29:44;;;;;;;3.37;2.42;;;;;;;;;;4380383;32;20061;-62
2022/07/22 11:32:13;;;;;;;4.03;2.55;;;;;;;;;;4379397;32;20085;-64
2022/07/22 11:34:46;;;;;;;3.55;2.33;;;;;;;;;;4380456;32;20078;-64
2022/07/22 11:37:20;;;;;;;5.90;2.53;;;;;;;;;;4393958;32;20076;-64
2022/07/22 11:39:47;;;;;;;8.02;2.75;;;;;;;;;;4379442;32;20084;-63
2022/07/22 11:42:14;;;;;;;8.25;2.95;;;;;;;;;;4379799;32;20074;-65
2022/07/22 11:44:40;;;;;;;3.25;2.35;;;;;;;;;;4379582;32;20093;-64
2022/07/22 11:47:08;;;;;;;3.50;2.75;;;;;;;;;;4392342;32;20085;-63
2022/07/22 11:49:37;;;;;;;5.40;2.92;;;;;;;;;;4379377;32;20077;-64
2022/07/22 11:52:07;;;;;;;4.95;2.80;;;;;;;;;;4379101;32;20058;-65
2022/07/22 11:54:34;;;;;;;3.47;2.58;;;;;;;;;;4392126;32;20189;-64
2022/07/22 11:57:02;;;;;;;5.53;3.40;;;;;;;;;;4379672;32;20480;-62
2022/07/22 11:59:30;;;;;;;9.88;3.90;;;;;;;;;;4379242;32;20077;-65
2022/07/22 12:01:57;;;;;;;3.28;2.42;;;;;;;;;;4379224;32;20089;-65
2022/07/22 12:04:26;;;;;;;3.78;2.80;;;;;;;;;;4378920;32;20141;-64
2022/07/22 12:06:54;;;;;;;4.57;2.55;;;;;;;;;;4391386;32;20081;-64
2022/07/22 12:09:23;;;;;;;8.27;2.90;;;;;;;;;;4391632;32;20077;-64
2022/07/22 12:11:53;;;;;;;2.75;2.22;;;;;;;;;;4379898;32;20153;-64
2022/07/22 12:14:25;;;;;;;4.47;2.70;;;;;;;;;;4366767;32;20089;-64
2022/07/22 12:17:11;;;;;;;5.07;2.83;;;;;;;;;;4378938;32;20109;-63
2022/07/22 12:19:40;;;;;;;2.75;2.40;;;;;;;;;;4391713;32;20080;-64
2022/07/22 12:22:09;;;;;;;3.50;2.50;;;;;;;;;;4379365;32;20527;-64
2022/07/22 12:24:38;;;;;;;4.72;2.33;;;;;;;;;;4379854;32;20074;-65
2022/07/22 12:27:07;;;;;;;3.45;2.50;;;;;;;;;;4379674;32;20160;-65
2022/07/22 12:29:36;;;;;;;4.55;2.70;;;;;;;;;;4379133;32;20073;-65
2022/07/22 12:32:09;;;;;;;3.80;2.67;;;;;;;;;;4392703;32;20134;-67
2022/07/22 12:34:40;;;;;;;3.05;2.53;;;;;;;;;;4394135;32;20086;-64
2022/07/22 12:37:23;;;;;;;5.47;2.67;;;;;;;;;;4395180;32;20081;-65
2022/07/22 12:40:04;;;;;;;3.08;2.40;;;;;;;;;;4367835;32;20161;-65
2022/07/22 12:42:40;;;;;;;5.18;2.62;;;;;;;;;;4393112;32;20080;-65
2022/07/22 12:45:10;;;;;;;;;;;;;;;;;;4393597;32;20178;-64
2022/07/22 12:47:54;;;;;;;4.75;2.60;;;;;;;;;;4367821;32;19958;-64
2022/07/22 12:50:36;;;;;;;7.12;2.60;;;;;;;;;;4379966;32;20107;-64
2022/07/22 12:53:11;;;;;;;3.72;2.45;;;;;;;;;;4391591;32;20153;-65
2022/07/22 12:55:51;;;;;;;4.18;2.40;;;;;;;;;;4365854;32;20527;-63
2022/07/22 12:58:18;;;;;;;3.05;2.40;;;;;;;;;;4391866;32;20081;-64
2022/07/22 13:00:48;;;;;;;5.50;2.70;;;;;;;;;;4378812;32;20085;-64
2022/07/22 13:03:15;;;;;;;6.15;2.62;;;;;;;;;;4379384;32;20534;-65
2022/07/22 13:05:42;;;;;;;4.55;2.90;;;;;;;;;;4378891;32;20062;-64
2022/07/22 13:08:09;;;;;;;4.35;3.00;;;;;;;;;;4378547;32;20066;-64
2022/07/22 13:10:36;;;;;;;5.97;2.95;;;;;;;;;;4366320;32;20117;-64
2022/07/22 13:13:03;;;;;;;6.37;3.05;;;;;;;;;;4366200;32;20469;-66
2022/07/22 13:15:30;;;;;;;7.70;3.03;;;;;;;;;;4377957;32;20237;-66
2022/07/22 13:17:57;;;;;;;8.55;4.00;;;;;;;;;;4365605;32;20082;-65
2022/07/22 13:20:24;;;;;;;9.13;4.15;;;;;;;;;;4378278;32;20078;-65
2022/07/22 13:22:51;;;;;;;7.70;4.18;;;;;;;;;;4378745;32;20193;-65
2022/07/22 13:25:18;;;;;;;12.07;4.55;;;;;;;;;;4392307;32;20156;-66
2022/07/22 13:27:45;;;;;;;7.72;4.65;;;;;;;;;;4365475;32;20084;-66
2022/07/22 13:30:12;;;;;;;8.60;4.55;;;;;;;;;;4365493;32;20587;-67
2022/07/22 13:32:39;;;;;;;8.43;4.47;;;;;;;;;;4377874;32;20085;-68
2022/07/22 13:35:06;;;;;;;7.00;3.85;;;;;;;;;;4377889;32;20070;-67
2022/07/22 13:37:35;;;;;;;8.15;4.05;;;;;;;;;;4365542;32;20124;-64
2022/07/22 13:40:02;;;;;;;7.80;4.15;;;;;;;;;;4364942;32;20086;-65
2022/07/22 13:42:29;;;;;;;7.07;3.78;;;;;;;;;;4377870;32;20101;-66
2022/07/22 13:44:56;;;;;;;5.93;3.40;;;;;;;;;;4377855;32;20153;-65
2022/07/22 13:47:23;;;;;;;6.43;3.50;;;;;;;;;;4390784;32;20504;-66
2022/07/22 13:49:50;;;;;;;5.55;3.40;;;;;;;;;;4377807;32;20081;-66
2022/07/22 13:52:18;;;;;;;5.30;3.78;;;;;;;;;;4365267;32;20174;-65
2022/07/22 13:54:45;;;;;;;5.45;3.28;;;;;;;;;;4377726;32;20085;-67
2022/07/22 13:57:12;;;;;;;4.35;2.92;;;;;;;;;;4377475;32;20098;-66
2022/07/22 13:59:39;;;;;;;6.07;3.30;;;;;;;;;;4377496;32;20093;-65
2022/07/22 14:02:06;;;;;;;4.07;2.97;;;;;;;;;;4377525;32;20544;-66
2022/07/22 14:04:33;;;;;;;6.62;3.10;;;;;;;;;;4377500;32;20089;-65
2022/07/22 14:07:00;;;;;;;6.45;3.08;;;;;;;;;;4390336;32;20067;-66
2022/07/22 14:09:27;;;;;;;3.05;2.50;;;;;;;;;;4377250;32;20078;-66
2022/07/22 14:11:54;;;;;;;3.53;2.90;;;;;;;;;;4377588;32;20090;-66
2022/07/22 14:14:20;;;;;;;6.70;2.87;;;;;;;;;;4390683;32;20178;-64
2022/07/22 14:16:47;;;;;;;6.53;2.50;;;;;;;;;;4377739;32;20561;-65
2022/07/22 14:19:16;;;;;;;3.05;2.60;;;;;;;;;;4377518;32;20062;-65
2022/07/22 14:21:45;;;;;;;4.85;2.72;;;;;;;;;;4377685;32;20070;-65
2022/07/22 14:24:12;;;;;;;6.18;2.95;;;;;;;;;;4389879;32;20061;-65
2022/07/22 14:26:39;;;;;;;4.85;2.65;;;;;;;;;;4377247;32;20058;-65
2022/07/22 14:29:07;;;;;;;5.07;2.30;;;;;;;;;;4364910;32;20081;-64
2022/07/22 14:31:34;;;;;;;3.60;2.45;;;;;;;;;;4365129;32;20074;-65
2022/07/22 14:34:01;;;;;;;4.45;2.45;;;;;;;;;;4377446;32;20073;-64
2022/07/22 14:36:28;;;;;;;3.75;2.30;;;;;;;;;;4377373;32;20081;-63
2022/07/22 14:38:55;;;;;;;3.75;2.58;;;;;;;;;;4389912;32;20101;-65
2022/07/22 14:41:22;;;;;;;5.18;2.47;;;;;;;;;;4377068;32;20587;-64
2022/07/22 14:43:49;;;;;;;6.68;2.53;;;;;;;;;;4365057;32;20093;-63
2022/07/22 14:46:16;;;;;;;6.12;2.40;;;;;;;;;;4376944;32;20147;-65
2022/07/22 14:48:43;;;;;;;2.55;2.30;;;;;;;;;;4377081;32;20078;-64